sensor_id;sensor_type;location;lat;lon;timestamp;P1;durP1;ratioP1;P2;durP2;ratioP2
65552;SDS011;72126;51.560;14.368;2023-09-30T00:00:21;6.00;;;2.90;;
65552;SDS011;72126;51.560;14.368;2023-09-30T00:02:47;3.47;;;2.72;;
65552;SDS011;72126;51.560;14.368;2023-09-30T00:05:12;5.25;;;3.30;;
65552;SDS011;72126;51.560;14.368;2023-09-30T00:07:37;5.40;;;3.37;;
65552;SDS011;72126;51.560;14.368;2023-09-30T00:10:03;4.73;;;2.80;;
65552;SDS011;72126;51.560;14.368;2023-09-30T00:12:28;4.57;;;2.78;;
65552;SDS011;72126;51.560;14.368;2023-09-30T00:14:53;6.50;;;3.10;;
65552;SDS011;72126;51.560;14.368;2023-09-30T00:17:19;6.07;;;3.10;;
65552;SDS011;72126;51.560;14.368;2023-09-30T00:19:44;7.93;;;3.33;;
65552;SDS011;72126;51.560;14.368;2023-09-30T00:22:09;6.73;;;2.80;;
65552;SDS011;72126;51.560;14.368;2023-09-30T00:24:34;4.33;;;3.00;;
65552;SDS011;72126;51.560;14.368;2023-09-30T00:27:00;5.33;;;2.70;;
65552;SDS011;72126;51.560;14.368;2023-09-30T00:29:25;6.30;;;3.13;;
65552;SDS011;72126;51.560;14.368;2023-09-30T00:31:50;6.27;;;3.07;;
65552;SDS011;72126;51.560;14.368;2023-09-30T00:34:15;4.67;;;2.90;;
65552;SDS011;72126;51.560;14.368;2023-09-30T00:36:40;5.50;;;2.83;;
65552;SDS011;72126;51.560;14.368;2023-09-30T00:39:06;4.23;;;2.70;;
65552;SDS011;72126;51.560;14.368;2023-09-30T00:41:32;5.22;;;2.80;;
65552;SDS011;72126;51.560;14.368;2023-09-30T00:43:57;3.83;;;2.40;;
65552;SDS011;72126;51.560;14.368;2023-09-30T00:46:29;4.97;;;2.77;;
65552;SDS011;72126;51.560;14.368;2023-09-30T00:48:57;4.95;;;2.78;;
65552;SDS011;72126;51.560;14.368;2023-09-30T00:51:23;4.97;;;2.75;;
65552;SDS011;72126;51.560;14.368;2023-09-30T00:53:49;4.07;;;2.60;;
65552;SDS011;72126;51.560;14.368;2023-09-30T00:56:19;5.32;;;3.15;;
65552;SDS011;72126;51.560;14.368;2023-09-30T00:58:48;4.43;;;2.45;;
65552;SDS011;72126;51.560;14.368;2023-09-30T01:01:13;5.05;;;2.55;;
65552;SDS011;72126;51.560;14.368;2023-09-30T01:03:40;5.05;;;3.10;;
65552;SDS011;72126;51.560;14.368;2023-09-30T01:06:05;4.03;;;2.60;;
65552;SDS011;72126;51.560;14.368;2023-09-30T01:08:31;4.03;;;2.63;;
65552;SDS011;72126;51.560;14.368;2023-09-30T01:10:57;4.80;;;2.78;;
65552;SDS011;72126;51.560;14.368;2023-09-30T01:13:22;4.18;;;2.55;;
65552;SDS011;72126;51.560;14.368;2023-09-30T01:15:48;3.97;;;2.43;;
65552;SDS011;72126;51.560;14.368;2023-09-30T01:18:13;4.07;;;2.37;;
65552;SDS011;72126;51.560;14.368;2023-09-30T01:20:38;6.13;;;2.63;;
65552;SDS011;72126;51.560;14.368;2023-09-30T01:23:03;3.97;;;2.17;;
65552;SDS011;72126;51.560;14.368;2023-09-30T01:25:29;4.97;;;2.30;;
65552;SDS011;72126;51.560;14.368;2023-09-30T01:27:55;4.60;;;2.70;;
65552;SDS011;72126;51.560;14.368;2023-09-30T01:30:20;4.50;;;2.53;;
65552;SDS011;72126;51.560;14.368;2023-09-30T01:32:45;4.20;;;2.50;;
65552;SDS011;72126;51.560;14.368;2023-09-30T01:35:10;5.30;;;2.70;;
65552;SDS011;72126;51.560;14.368;2023-09-30T01:37:35;3.93;;;2.40;;
65552;SDS011;72126;51.560;14.368;2023-09-30T01:40:01;4.78;;;2.15;;
65552;SDS011;72126;51.560;14.368;2023-09-30T01:42:27;4.35;;;2.10;;
65552;SDS011;72126;51.560;14.368;2023-09-30T01:44:52;3.77;;;1.97;;
65552;SDS011;72126;51.560;14.368;2023-09-30T01:47:17;4.97;;;2.20;;
65552;SDS011;72126;51.560;14.368;2023-09-30T01:49:43;3.33;;;2.20;;
65552;SDS011;72126;51.560;14.368;2023-09-30T01:52:08;4.50;;;2.03;;
65552;SDS011;72126;51.560;14.368;2023-09-30T01:54:33;3.30;;;1.80;;
65552;SDS011;72126;51.560;14.368;2023-09-30T01:56:58;2.90;;;1.70;;
65552;SDS011;72126;51.560;14.368;2023-09-30T01:59:24;3.50;;;1.73;;
65552;SDS011;72126;51.560;14.368;2023-09-30T02:01:49;3.78;;;2.00;;
65552;SDS011;72126;51.560;14.368;2023-09-30T02:04:14;2.83;;;1.50;;
65552;SDS011;72126;51.560;14.368;2023-09-30T02:06:39;3.17;;;1.47;;
65552;SDS011;72126;51.560;14.368;2023-09-30T02:09:04;4.93;;;1.63;;
65552;SDS011;72126;51.560;14.368;2023-09-30T02:11:30;3.53;;;1.70;;
65552;SDS011;72126;51.560;14.368;2023-09-30T02:13:55;4.30;;;1.30;;
65552;SDS011;72126;51.560;14.368;2023-09-30T02:16:20;1.92;;;1.48;;
65552;SDS011;72126;51.560;14.368;2023-09-30T02:18:45;2.77;;;1.40;;
65552;SDS011;72126;51.560;14.368;2023-09-30T02:21:10;2.37;;;1.60;;
65552;SDS011;72126;51.560;14.368;2023-09-30T02:23:36;4.70;;;1.27;;
65552;SDS011;72126;51.560;14.368;2023-09-30T02:26:01;2.77;;;1.40;;
65552;SDS011;72126;51.560;14.368;2023-09-30T02:28:27;3.53;;;1.65;;
65552;SDS011;72126;51.560;14.368;2023-09-30T02:30:54;3.80;;;1.43;;
65552;SDS011;72126;51.560;14.368;2023-09-30T02:33:19;4.22;;;1.30;;
65552;SDS011;72126;51.560;14.368;2023-09-30T02:35:45;3.37;;;1.77;;
65552;SDS011;72126;51.560;14.368;2023-09-30T02:38:10;2.80;;;1.38;;
65552;SDS011;72126;51.560;14.368;2023-09-30T02:40:35;2.85;;;1.30;;
65552;SDS011;72126;51.560;14.368;2023-09-30T02:43:01;2.63;;;1.20;;
65552;SDS011;72126;51.560;14.368;2023-09-30T02:45:27;2.22;;;1.38;;
65552;SDS011;72126;51.560;14.368;2023-09-30T02:47:53;2.67;;;1.40;;
65552;SDS011;72126;51.560;14.368;2023-09-30T02:50:18;2.27;;;1.20;;
65552;SDS011;72126;51.560;14.368;2023-09-30T02:52:43;3.40;;;1.20;;
65552;SDS011;72126;51.560;14.368;2023-09-30T02:55:09;5.18;;;1.38;;
65552;SDS011;72126;51.560;14.368;2023-09-30T02:57:35;2.50;;;1.30;;
65552;SDS011;72126;51.560;14.368;2023-09-30T03:00:02;7.20;;;1.52;;
65552;SDS011;72126;51.560;14.368;2023-09-30T03:02:28;3.05;;;1.30;;
65552;SDS011;72126;51.560;14.368;2023-09-30T03:04:53;2.37;;;1.20;;
65552;SDS011;72126;51.560;14.368;2023-09-30T03:07:19;2.93;;;1.37;;
65552;SDS011;72126;51.560;14.368;2023-09-30T03:09:45;2.63;;;1.20;;
65552;SDS011;72126;51.560;14.368;2023-09-30T03:12:11;2.45;;;1.20;;
65552;SDS011;72126;51.560;14.368;2023-09-30T03:14:36;1.80;;;1.23;;
65552;SDS011;72126;51.560;14.368;2023-09-30T03:17:01;2.27;;;1.40;;
65552;SDS011;72126;51.560;14.368;2023-09-30T03:19:26;2.43;;;1.23;;
65552;SDS011;72126;51.560;14.368;2023-09-30T03:21:52;3.60;;;1.47;;
65552;SDS011;72126;51.560;14.368;2023-09-30T03:24:17;3.37;;;1.20;;
65552;SDS011;72126;51.560;14.368;2023-09-30T03:26:42;2.17;;;1.20;;
65552;SDS011;72126;51.560;14.368;2023-09-30T03:29:10;5.05;;;1.67;;
65552;SDS011;72126;51.560;14.368;2023-09-30T03:31:35;4.45;;;1.23;;
65552;SDS011;72126;51.560;14.368;2023-09-30T03:34:02;2.72;;;1.30;;
65552;SDS011;72126;51.560;14.368;2023-09-30T03:36:28;4.15;;;1.60;;
65552;SDS011;72126;51.560;14.368;2023-09-30T03:38:53;2.87;;;1.40;;
65552;SDS011;72126;51.560;14.368;2023-09-30T03:41:18;2.67;;;1.30;;
65552;SDS011;72126;51.560;14.368;2023-09-30T03:43:43;2.00;;;1.20;;
65552;SDS011;72126;51.560;14.368;2023-09-30T03:46:09;2.93;;;1.20;;
65552;SDS011;72126;51.560;14.368;2023-09-30T03:48:34;5.30;;;1.23;;
65552;SDS011;72126;51.560;14.368;2023-09-30T03:51:07;2.73;;;1.17;;
65552;SDS011;72126;51.560;14.368;2023-09-30T03:53:33;3.05;;;0.95;;
65552;SDS011;72126;51.560;14.368;2023-09-30T03:55:59;3.03;;;1.17;;
65552;SDS011;72126;51.560;14.368;2023-09-30T03:58:24;2.50;;;1.13;;
65552;SDS011;72126;51.560;14.368;2023-09-30T04:00:49;3.30;;;1.10;;
65552;SDS011;72126;51.560;14.368;2023-09-30T04:03:14;4.23;;;1.40;;
65552;SDS011;72126;51.560;14.368;2023-09-30T04:05:39;3.43;;;1.43;;
65552;SDS011;72126;51.560;14.368;2023-09-30T04:08:04;4.23;;;1.20;;
65552;SDS011;72126;51.560;14.368;2023-09-30T04:10:30;4.80;;;1.20;;
65552;SDS011;72126;51.560;14.368;2023-09-30T04:12:55;2.37;;;1.10;;
65552;SDS011;72126;51.560;14.368;2023-09-30T04:15:21;2.97;;;1.30;;
65552;SDS011;72126;51.560;14.368;2023-09-30T04:17:47;4.85;;;1.50;;
65552;SDS011;72126;51.560;14.368;2023-09-30T04:20:13;2.80;;;1.20;;
65552;SDS011;72126;51.560;14.368;2023-09-30T04:22:38;1.88;;;1.05;;
65552;SDS011;72126;51.560;14.368;2023-09-30T04:25:04;2.83;;;1.20;;
65552;SDS011;72126;51.560;14.368;2023-09-30T04:27:29;3.00;;;1.17;;
65552;SDS011;72126;51.560;14.368;2023-09-30T04:29:54;3.93;;;1.30;;
65552;SDS011;72126;51.560;14.368;2023-09-30T04:32:20;3.57;;;1.40;;
65552;SDS011;72126;51.560;14.368;2023-09-30T04:34:45;2.30;;;1.33;;
65552;SDS011;72126;51.560;14.368;2023-09-30T04:37:10;3.35;;;1.40;;
65552;SDS011;72126;51.560;14.368;2023-09-30T04:39:35;4.30;;;1.23;;
65552;SDS011;72126;51.560;14.368;2023-09-30T04:42:01;4.50;;;1.40;;
65552;SDS011;72126;51.560;14.368;2023-09-30T04:44:26;5.15;;;1.30;;
65552;SDS011;72126;51.560;14.368;2023-09-30T04:46:51;1.93;;;1.17;;
65552;SDS011;72126;51.560;14.368;2023-09-30T04:49:16;3.60;;;1.10;;
65552;SDS011;72126;51.560;14.368;2023-09-30T04:51:41;2.70;;;1.23;;
65552;SDS011;72126;51.560;14.368;2023-09-30T04:54:07;4.57;;;1.30;;
65552;SDS011;72126;51.560;14.368;2023-09-30T04:56:32;4.30;;;1.30;;
65552;SDS011;72126;51.560;14.368;2023-09-30T04:58:57;4.27;;;1.43;;
65552;SDS011;72126;51.560;14.368;2023-09-30T05:01:22;2.60;;;1.15;;
65552;SDS011;72126;51.560;14.368;2023-09-30T05:03:47;4.57;;;1.40;;
65552;SDS011;72126;51.560;14.368;2023-09-30T05:06:13;5.63;;;1.30;;
65552;SDS011;72126;51.560;14.368;2023-09-30T05:08:38;3.37;;;1.13;;
65552;SDS011;72126;51.560;14.368;2023-09-30T05:11:03;2.40;;;1.07;;
65552;SDS011;72126;51.560;14.368;2023-09-30T05:13:28;4.00;;;1.40;;
65552;SDS011;72126;51.560;14.368;2023-09-30T05:15:53;5.03;;;1.40;;
65552;SDS011;72126;51.560;14.368;2023-09-30T05:18:19;3.38;;;1.25;;
65552;SDS011;72126;51.560;14.368;2023-09-30T05:20:44;2.73;;;1.00;;
65552;SDS011;72126;51.560;14.368;2023-09-30T05:23:09;2.63;;;1.20;;
65552;SDS011;72126;51.560;14.368;2023-09-30T05:25:34;3.50;;;1.20;;
65552;SDS011;72126;51.560;14.368;2023-09-30T05:28:00;2.57;;;1.33;;
65552;SDS011;72126;51.560;14.368;2023-09-30T05:30:25;2.90;;;1.20;;
65552;SDS011;72126;51.560;14.368;2023-09-30T05:32:51;4.65;;;1.48;;
65552;SDS011;72126;51.560;14.368;2023-09-30T05:35:16;3.55;;;1.40;;
65552;SDS011;72126;51.560;14.368;2023-09-30T05:37:41;3.20;;;1.20;;
65552;SDS011;72126;51.560;14.368;2023-09-30T05:40:08;3.30;;;1.30;;
65552;SDS011;72126;51.560;14.368;2023-09-30T05:42:33;2.97;;;1.20;;
65552;SDS011;72126;51.560;14.368;2023-09-30T05:44:59;2.83;;;1.40;;
65552;SDS011;72126;51.560;14.368;2023-09-30T05:47:25;2.83;;;1.27;;
65552;SDS011;72126;51.560;14.368;2023-09-30T05:49:50;2.35;;;1.05;;
65552;SDS011;72126;51.560;14.368;2023-09-30T05:52:15;3.97;;;1.43;;
65552;SDS011;72126;51.560;14.368;2023-09-30T05:54:40;3.40;;;1.47;;
65552;SDS011;72126;51.560;14.368;2023-09-30T05:57:05;5.27;;;1.33;;
65552;SDS011;72126;51.560;14.368;2023-09-30T05:59:31;2.40;;;1.17;;
65552;SDS011;72126;51.560;14.368;2023-09-30T06:01:56;4.05;;;1.10;;
65552;SDS011;72126;51.560;14.368;2023-09-30T06:04:21;4.30;;;1.23;;
65552;SDS011;72126;51.560;14.368;2023-09-30T06:06:47;3.27;;;1.23;;
65552;SDS011;72126;51.560;14.368;2023-09-30T06:09:12;2.77;;;1.43;;
65552;SDS011;72126;51.560;14.368;2023-09-30T06:11:37;5.23;;;1.43;;
65552;SDS011;72126;51.560;14.368;2023-09-30T06:14:02;3.70;;;1.00;;
65552;SDS011;72126;51.560;14.368;2023-09-30T06:16:28;2.70;;;1.15;;
65552;SDS011;72126;51.560;14.368;2023-09-30T06:18:53;5.13;;;1.75;;
65552;SDS011;72126;51.560;14.368;2023-09-30T06:21:21;3.47;;;1.40;;
65552;SDS011;72126;51.560;14.368;2023-09-30T06:23:47;5.85;;;1.30;;
65552;SDS011;72126;51.560;14.368;2023-09-30T06:26:13;2.83;;;1.30;;
65552;SDS011;72126;51.560;14.368;2023-09-30T06:28:38;3.50;;;1.27;;
65552;SDS011;72126;51.560;14.368;2023-09-30T06:31:03;3.93;;;1.40;;
65552;SDS011;72126;51.560;14.368;2023-09-30T06:33:30;3.10;;;1.30;;
65552;SDS011;72126;51.560;14.368;2023-09-30T06:35:55;3.33;;;1.37;;
65552;SDS011;72126;51.560;14.368;2023-09-30T06:38:21;3.63;;;1.37;;
65552;SDS011;72126;51.560;14.368;2023-09-30T06:40:46;3.30;;;1.23;;
65552;SDS011;72126;51.560;14.368;2023-09-30T06:43:12;3.05;;;1.17;;
65552;SDS011;72126;51.560;14.368;2023-09-30T06:45:37;2.83;;;1.20;;
65552;SDS011;72126;51.560;14.368;2023-09-30T06:48:02;3.45;;;1.17;;
65552;SDS011;72126;51.560;14.368;2023-09-30T06:50:28;3.83;;;1.30;;
65552;SDS011;72126;51.560;14.368;2023-09-30T06:52:53;4.20;;;1.30;;
65552;SDS011;72126;51.560;14.368;2023-09-30T06:55:18;4.73;;;1.37;;
65552;SDS011;72126;51.560;14.368;2023-09-30T06:57:44;3.35;;;1.08;;
65552;SDS011;72126;51.560;14.368;2023-09-30T07:00:09;4.88;;;1.10;;
65552;SDS011;72126;51.560;14.368;2023-09-30T07:02:36;4.20;;;1.20;;
65552;SDS011;72126;51.560;14.368;2023-09-30T07:05:08;2.72;;;1.20;;
65552;SDS011;72126;51.560;14.368;2023-09-30T07:07:34;2.38;;;1.30;;
65552;SDS011;72126;51.560;14.368;2023-09-30T07:09:59;5.83;;;1.60;;
65552;SDS011;72126;51.560;14.368;2023-09-30T07:12:24;3.37;;;1.53;;
65552;SDS011;72126;51.560;14.368;2023-09-30T07:14:53;4.63;;;1.17;;
65552;SDS011;72126;51.560;14.368;2023-09-30T07:17:18;3.90;;;1.23;;
65552;SDS011;72126;51.560;14.368;2023-09-30T07:19:43;3.87;;;1.17;;
65552;SDS011;72126;51.560;14.368;2023-09-30T07:22:08;3.17;;;1.30;;
65552;SDS011;72126;51.560;14.368;2023-09-30T07:24:33;3.80;;;1.20;;
65552;SDS011;72126;51.560;14.368;2023-09-30T07:26:58;4.00;;;1.47;;
65552;SDS011;72126;51.560;14.368;2023-09-30T07:29:24;3.40;;;1.33;;
65552;SDS011;72126;51.560;14.368;2023-09-30T07:31:49;4.67;;;1.43;;
65552;SDS011;72126;51.560;14.368;2023-09-30T07:34:14;7.07;;;1.83;;
65552;SDS011;72126;51.560;14.368;2023-09-30T07:36:39;3.23;;;1.10;;
65552;SDS011;72126;51.560;14.368;2023-09-30T07:39:04;5.57;;;1.50;;
65552;SDS011;72126;51.560;14.368;2023-09-30T07:41:34;5.47;;;1.83;;
65552;SDS011;72126;51.560;14.368;2023-09-30T07:43:59;4.35;;;1.77;;
65552;SDS011;72126;51.560;14.368;2023-09-30T07:46:25;6.20;;;1.33;;
65552;SDS011;72126;51.560;14.368;2023-09-30T07:48:50;4.10;;;1.50;;
65552;SDS011;72126;51.560;14.368;2023-09-30T07:51:15;4.30;;;1.37;;
65552;SDS011;72126;51.560;14.368;2023-09-30T07:53:40;6.50;;;1.67;;
65552;SDS011;72126;51.560;14.368;2023-09-30T07:56:06;2.83;;;1.20;;
65552;SDS011;72126;51.560;14.368;2023-09-30T07:58:31;3.28;;;1.15;;
65552;SDS011;72126;51.560;14.368;2023-09-30T08:00:56;6.13;;;1.70;;
65552;SDS011;72126;51.560;14.368;2023-09-30T08:03:21;3.63;;;1.40;;
65552;SDS011;72126;51.560;14.368;2023-09-30T08:05:47;2.83;;;1.40;;
65552;SDS011;72126;51.560;14.368;2023-09-30T08:08:12;3.87;;;1.10;;
65552;SDS011;72126;51.560;14.368;2023-09-30T08:10:37;3.03;;;1.20;;
65552;SDS011;72126;51.560;14.368;2023-09-30T08:13:03;4.97;;;1.50;;
65552;SDS011;72126;51.560;14.368;2023-09-30T08:15:28;4.07;;;1.23;;
65552;SDS011;72126;51.560;14.368;2023-09-30T08:17:54;5.00;;;1.80;;
65552;SDS011;72126;51.560;14.368;2023-09-30T08:20:19;3.40;;;1.27;;
65552;SDS011;72126;51.560;14.368;2023-09-30T08:22:44;3.87;;;1.50;;
65552;SDS011;72126;51.560;14.368;2023-09-30T08:25:09;2.80;;;1.23;;
65552;SDS011;72126;51.560;14.368;2023-09-30T08:27:36;5.03;;;1.07;;
65552;SDS011;72126;51.560;14.368;2023-09-30T08:30:02;3.63;;;1.50;;
65552;SDS011;72126;51.560;14.368;2023-09-30T08:32:27;5.78;;;1.83;;
65552;SDS011;72126;51.560;14.368;2023-09-30T08:34:52;4.60;;;1.70;;
65552;SDS011;72126;51.560;14.368;2023-09-30T08:37:17;3.33;;;1.40;;
65552;SDS011;72126;51.560;14.368;2023-09-30T08:39:43;4.37;;;1.37;;
65552;SDS011;72126;51.560;14.368;2023-09-30T08:42:08;4.70;;;1.53;;
65552;SDS011;72126;51.560;14.368;2023-09-30T08:44:35;4.95;;;1.35;;
65552;SDS011;72126;51.560;14.368;2023-09-30T08:47:02;3.78;;;1.42;;
65552;SDS011;72126;51.560;14.368;2023-09-30T08:49:28;2.97;;;1.35;;
65552;SDS011;72126;51.560;14.368;2023-09-30T08:51:54;4.55;;;1.65;;
65552;SDS011;72126;51.560;14.368;2023-09-30T08:54:21;4.65;;;1.15;;
65552;SDS011;72126;51.560;14.368;2023-09-30T08:56:47;4.03;;;1.70;;
65552;SDS011;72126;51.560;14.368;2023-09-30T08:59:12;4.72;;;1.55;;
65552;SDS011;72126;51.560;14.368;2023-09-30T09:01:39;4.13;;;1.52;;
65552;SDS011;72126;51.560;14.368;2023-09-30T09:04:05;4.90;;;1.50;;
65552;SDS011;72126;51.560;14.368;2023-09-30T09:06:34;7.05;;;1.50;;
65552;SDS011;72126;51.560;14.368;2023-09-30T09:09:15;5.97;;;1.58;;
65552;SDS011;72126;51.560;14.368;2023-09-30T09:11:41;5.50;;;1.48;;
65552;SDS011;72126;51.560;14.368;2023-09-30T09:14:06;3.50;;;1.20;;
65552;SDS011;72126;51.560;14.368;2023-09-30T09:16:31;5.10;;;1.50;;
65552;SDS011;72126;51.560;14.368;2023-09-30T09:18:56;2.33;;;1.17;;
65552;SDS011;72126;51.560;14.368;2023-09-30T09:21:22;5.43;;;1.33;;
65552;SDS011;72126;51.560;14.368;2023-09-30T09:23:48;3.85;;;1.58;;
65552;SDS011;72126;51.560;14.368;2023-09-30T09:28:43;3.55;;;1.85;;
65552;SDS011;72126;51.560;14.368;2023-09-30T09:31:21;3.80;;;1.40;;
65552;SDS011;72126;51.560;14.368;2023-09-30T09:33:59;3.88;;;1.10;;
65552;SDS011;72126;51.560;14.368;2023-09-30T09:36:38;3.38;;;1.40;;
65552;SDS011;72126;51.560;14.368;2023-09-30T09:39:04;4.87;;;1.27;;
65552;SDS011;72126;51.560;14.368;2023-09-30T09:41:30;7.07;;;1.67;;
65552;SDS011;72126;51.560;14.368;2023-09-30T09:43:55;6.43;;;1.40;;
65552;SDS011;72126;51.560;14.368;2023-09-30T09:46:23;4.75;;;1.70;;
65552;SDS011;72126;51.560;14.368;2023-09-30T09:48:49;4.07;;;1.42;;
65552;SDS011;72126;51.560;14.368;2023-09-30T09:51:14;4.07;;;1.50;;
65552;SDS011;72126;51.560;14.368;2023-09-30T09:53:40;3.63;;;1.63;;
65552;SDS011;72126;51.560;14.368;2023-09-30T09:56:09;4.78;;;1.50;;
65552;SDS011;72126;51.560;14.368;2023-09-30T09:58:34;3.63;;;1.45;;
65552;SDS011;72126;51.560;14.368;2023-09-30T10:01:05;5.03;;;1.40;;
65552;SDS011;72126;51.560;14.368;2023-09-30T10:03:31;5.47;;;1.38;;
65552;SDS011;72126;51.560;14.368;2023-09-30T10:05:56;2.67;;;1.20;;
65552;SDS011;72126;51.560;14.368;2023-09-30T10:08:22;6.35;;;1.55;;
65552;SDS011;72126;51.560;14.368;2023-09-30T10:10:55;3.22;;;1.20;;
65552;SDS011;72126;51.560;14.368;2023-09-30T10:22:31;3.53;;;1.50;;
65552;SDS011;72126;51.560;14.368;2023-09-30T10:24:43;2.38;;;1.40;;
65552;SDS011;72126;51.560;14.368;2023-09-30T10:29:57;4.65;;;1.40;;
65552;SDS011;72126;51.560;14.368;2023-09-30T10:33:04;2.80;;;1.00;;
65552;SDS011;72126;51.560;14.368;2023-09-30T10:35:15;2.97;;;1.40;;
65552;SDS011;72126;51.560;14.368;2023-09-30T10:37:40;4.15;;;1.17;;
65552;SDS011;72126;51.560;14.368;2023-09-30T10:40:06;3.33;;;1.20;;
65552;SDS011;72126;51.560;14.368;2023-09-30T10:42:44;3.97;;;1.13;;
65552;SDS011;72126;51.560;14.368;2023-09-30T10:51:16;1.67;;;1.02;;
65552;SDS011;72126;51.560;14.368;2023-09-30T10:53:46;3.90;;;1.27;;
65552;SDS011;72126;51.560;14.368;2023-09-30T10:56:15;3.60;;;1.27;;
65552;SDS011;72126;51.560;14.368;2023-09-30T10:58:41;4.32;;;1.60;;
65552;SDS011;72126;51.560;14.368;2023-09-30T11:01:07;2.85;;;1.23;;
65552;SDS011;72126;51.560;14.368;2023-09-30T11:03:32;2.95;;;1.20;;
65552;SDS011;72126;51.560;14.368;2023-09-30T11:05:57;5.17;;;1.67;;
65552;SDS011;72126;51.560;14.368;2023-09-30T11:08:22;3.70;;;1.20;;
65552;SDS011;72126;51.560;14.368;2023-09-30T11:10:48;4.40;;;1.30;;
65552;SDS011;72126;51.560;14.368;2023-09-30T11:13:14;2.80;;;1.08;;
65552;SDS011;72126;51.560;14.368;2023-09-30T11:15:39;3.43;;;1.23;;
65552;SDS011;72126;51.560;14.368;2023-09-30T11:18:14;5.13;;;1.30;;
65552;SDS011;72126;51.560;14.368;2023-09-30T11:20:40;3.08;;;1.13;;
65552;SDS011;72126;51.560;14.368;2023-09-30T11:23:07;3.80;;;1.30;;
65552;SDS011;72126;51.560;14.368;2023-09-30T11:25:36;4.60;;;1.40;;
65552;SDS011;72126;51.560;14.368;2023-09-30T11:28:14;2.78;;;1.05;;
65552;SDS011;72126;51.560;14.368;2023-09-30T11:30:59;3.50;;;1.20;;
65552;SDS011;72126;51.560;14.368;2023-09-30T11:33:26;6.22;;;1.40;;
65552;SDS011;72126;51.560;14.368;2023-09-30T11:36:01;5.00;;;1.58;;
65552;SDS011;72126;51.560;14.368;2023-09-30T11:38:28;5.72;;;1.35;;
65552;SDS011;72126;51.560;14.368;2023-09-30T11:40:58;3.03;;;1.17;;
65552;SDS011;72126;51.560;14.368;2023-09-30T11:43:24;4.05;;;1.30;;
65552;SDS011;72126;51.560;14.368;2023-09-30T11:45:49;4.47;;;1.37;;
65552;SDS011;72126;51.560;14.368;2023-09-30T11:48:18;2.60;;;1.03;;
65552;SDS011;72126;51.560;14.368;2023-09-30T11:50:45;5.40;;;1.25;;
65552;SDS011;72126;51.560;14.368;2023-09-30T11:53:16;4.40;;;1.08;;
65552;SDS011;72126;51.560;14.368;2023-09-30T11:55:42;2.60;;;1.20;;
65552;SDS011;72126;51.560;14.368;2023-09-30T11:58:07;2.80;;;0.80;;
65552;SDS011;72126;51.560;14.368;2023-09-30T12:00:32;6.63;;;1.27;;
65552;SDS011;72126;51.560;14.368;2023-09-30T12:02:57;4.60;;;1.33;;
65552;SDS011;72126;51.560;14.368;2023-09-30T12:05:23;2.43;;;1.10;;
65552;SDS011;72126;51.560;14.368;2023-09-30T12:07:48;4.63;;;1.10;;
65552;SDS011;72126;51.560;14.368;2023-09-30T12:10:13;5.37;;;1.27;;
65552;SDS011;72126;51.560;14.368;2023-09-30T12:12:38;7.20;;;1.63;;
65552;SDS011;72126;51.560;14.368;2023-09-30T12:15:04;3.33;;;1.07;;
65552;SDS011;72126;51.560;14.368;2023-09-30T12:17:29;5.45;;;1.10;;
65552;SDS011;72126;51.560;14.368;2023-09-30T12:19:54;2.77;;;1.30;;
65552;SDS011;72126;51.560;14.368;2023-09-30T12:22:19;3.77;;;1.30;;
65552;SDS011;72126;51.560;14.368;2023-09-30T12:24:45;3.70;;;1.10;;
65552;SDS011;72126;51.560;14.368;2023-09-30T12:27:10;4.00;;;0.93;;
65552;SDS011;72126;51.560;14.368;2023-09-30T12:29:35;4.73;;;1.40;;
65552;SDS011;72126;51.560;14.368;2023-09-30T12:32:00;3.70;;;1.30;;
65552;SDS011;72126;51.560;14.368;2023-09-30T12:34:26;4.30;;;0.90;;
65552;SDS011;72126;51.560;14.368;2023-09-30T12:36:51;2.77;;;0.93;;
65552;SDS011;72126;51.560;14.368;2023-09-30T12:39:16;3.90;;;0.90;;
65552;SDS011;72126;51.560;14.368;2023-09-30T12:41:41;5.50;;;0.90;;
65552;SDS011;72126;51.560;14.368;2023-09-30T12:44:07;1.40;;;0.70;;
65552;SDS011;72126;51.560;14.368;2023-09-30T12:46:33;3.13;;;1.20;;
65552;SDS011;72126;51.560;14.368;2023-09-30T12:48:59;3.58;;;1.17;;
65552;SDS011;72126;51.560;14.368;2023-09-30T12:51:24;2.97;;;1.10;;
65552;SDS011;72126;51.560;14.368;2023-09-30T12:53:49;2.27;;;0.77;;
65552;SDS011;72126;51.560;14.368;2023-09-30T12:56:14;3.67;;;1.17;;
65552;SDS011;72126;51.560;14.368;2023-09-30T12:58:39;2.47;;;1.10;;
65552;SDS011;72126;51.560;14.368;2023-09-30T13:01:04;1.63;;;0.90;;
65552;SDS011;72126;51.560;14.368;2023-09-30T13:03:30;3.10;;;1.00;;
65552;SDS011;72126;51.560;14.368;2023-09-30T13:05:55;2.90;;;0.83;;
65552;SDS011;72126;51.560;14.368;2023-09-30T13:08:20;2.97;;;1.03;;
65552;SDS011;72126;51.560;14.368;2023-09-30T13:10:45;1.93;;;0.70;;
65552;SDS011;72126;51.560;14.368;2023-09-30T13:13:10;2.03;;;1.00;;
65552;SDS011;72126;51.560;14.368;2023-09-30T13:15:36;2.28;;;0.90;;
65552;SDS011;72126;51.560;14.368;2023-09-30T13:18:01;4.00;;;0.97;;
65552;SDS011;72126;51.560;14.368;2023-09-30T13:20:26;1.90;;;0.97;;
65552;SDS011;72126;51.560;14.368;2023-09-30T13:22:51;2.40;;;0.67;;
65552;SDS011;72126;51.560;14.368;2023-09-30T13:25:16;3.03;;;0.80;;
65552;SDS011;72126;51.560;14.368;2023-09-30T13:27:41;3.97;;;0.83;;
65552;SDS011;72126;51.560;14.368;2023-09-30T13:30:07;2.40;;;0.90;;
65552;SDS011;72126;51.560;14.368;2023-09-30T13:32:33;4.13;;;0.77;;
65552;SDS011;72126;51.560;14.368;2023-09-30T13:34:58;2.63;;;1.00;;
65552;SDS011;72126;51.560;14.368;2023-09-30T13:37:24;2.83;;;1.00;;
65552;SDS011;72126;51.560;14.368;2023-09-30T13:39:49;1.37;;;0.70;;
65552;SDS011;72126;51.560;14.368;2023-09-30T13:42:14;2.43;;;1.00;;
65552;SDS011;72126;51.560;14.368;2023-09-30T13:44:39;3.30;;;0.93;;
65552;SDS011;72126;51.560;14.368;2023-09-30T13:47:04;4.33;;;1.10;;
65552;SDS011;72126;51.560;14.368;2023-09-30T13:49:29;2.93;;;0.70;;
65552;SDS011;72126;51.560;14.368;2023-09-30T13:51:55;2.13;;;0.70;;
65552;SDS011;72126;51.560;14.368;2023-09-30T13:54:20;5.40;;;1.47;;
65552;SDS011;72126;51.560;14.368;2023-09-30T13:56:45;4.33;;;1.03;;
65552;SDS011;72126;51.560;14.368;2023-09-30T13:59:10;1.93;;;0.93;;
65552;SDS011;72126;51.560;14.368;2023-09-30T14:01:35;4.50;;;0.90;;
65552;SDS011;72126;51.560;14.368;2023-09-30T14:04:01;3.07;;;1.20;;
65552;SDS011;72126;51.560;14.368;2023-09-30T14:06:26;3.67;;;0.90;;
65552;SDS011;72126;51.560;14.368;2023-09-30T14:08:51;1.97;;;0.97;;
65552;SDS011;72126;51.560;14.368;2023-09-30T14:11:16;3.10;;;1.00;;
65552;SDS011;72126;51.560;14.368;2023-09-30T14:13:41;2.40;;;1.10;;
65552;SDS011;72126;51.560;14.368;2023-09-30T14:16:06;2.60;;;1.10;;
65552;SDS011;72126;51.560;14.368;2023-09-30T14:18:32;2.00;;;0.80;;
65552;SDS011;72126;51.560;14.368;2023-09-30T14:20:57;1.70;;;0.60;;
65552;SDS011;72126;51.560;14.368;2023-09-30T14:23:23;2.45;;;0.73;;
65552;SDS011;72126;51.560;14.368;2023-09-30T14:25:49;2.83;;;1.20;;
65552;SDS011;72126;51.560;14.368;2023-09-30T14:28:18;2.75;;;0.93;;
65552;SDS011;72126;51.560;14.368;2023-09-30T14:30:43;1.40;;;0.70;;
65552;SDS011;72126;51.560;14.368;2023-09-30T14:33:08;2.53;;;0.90;;
65552;SDS011;72126;51.560;14.368;2023-09-30T14:35:33;1.70;;;0.90;;
65552;SDS011;72126;51.560;14.368;2023-09-30T14:37:58;2.80;;;0.80;;
65552;SDS011;72126;51.560;14.368;2023-09-30T14:40:24;1.97;;;1.00;;
65552;SDS011;72126;51.560;14.368;2023-09-30T14:42:49;1.53;;;0.93;;
65552;SDS011;72126;51.560;14.368;2023-09-30T14:45:14;3.50;;;1.10;;